• Join FlightAware (Why Join?)
  • Login
  • US Flag 
10:50PM EST


 

Airport Tracker/Info


-or-


 

Live Flight TrackerFlight Track Log ✈ UAL3744 ✈ 22-Apr-2013 ✈ KCHS - KIAD

Flight Track Log - Related Links

Times and Time Zones

All times are in EDT time to prevent confusion due to time zone crossing. See the UAL3744 flight status page for this flight to view local times or setup timezone preferences in your user account.

Time Position Orientation Groundspeed Altitude Reporting Facility
EDT Latitude Longitude Course Direction KTS MPH feet Rate Location/Type
05:35AM 32.9667 -80.0181 14° North 186 214 3,500  Level Jacksonville Center
05:36AM 33.0269 -79.9964 17° North 232 267 5,300 2,220 Climbing Jacksonville Center
05:37AM 33.2350 -79.9297 North  Level FlightAware Approximate
05:37AM 33.1014 -79.9767 13° North 252 290 8,000  Level Jacksonville Center
05:38AM 33.3508 -79.8913 23° Northeast  Level FlightAware Approximate
05:38AM 33.1825 -79.9542 13° North 273 314 10,600  Level Jacksonville Center
05:39AM 33.4689 -79.8613 13° North  Level FlightAware Approximate
05:39AM 33.2694 -79.9289 14° North 299 344 12,700  Level Jacksonville Center
05:40AM 33.5867 -79.8277 13° North  Level FlightAware Approximate
05:40AM 33.3628 -79.9033 13° North 324 373 14,900  Level Jacksonville Center
05:41AM 33.7044 -79.7937 14° North  Level FlightAware Approximate
05:42AM 33.4836 -79.8571 13° North  Level FlightAware Approximate
05:42AM 33.5658 -79.8467 13° North 364 419 18,100  Level Jacksonville Center
05:43AM 33.6758 -79.8153 13° North 386 444 19,900 1,740 Climbing Jacksonville Center
05:44AM 33.7878 -79.7864 12° North 400 460 21,600 1,500 Climbing Jacksonville Center
05:45AM 33.9078 -79.7522 13° North 414 476 23,000 1,380 Climbing Jacksonville Center
05:47AM 34.1331 -79.6886 13° North 427 491 25,700 1,320 Climbing Washington Center
05:48AM 34.2617 -79.6425 17° North 453 521 27,000 1,320 Climbing Washington Center
05:49AM 34.3869 -79.5781 23° Northeast 472 543 28,400 960 Climbing Washington Center
05:50AM 34.5228 -79.5092 23° Northeast 477 549 29,000 300 Climbing Washington Center
05:51AM 34.6567 -79.4372 24° Northeast 496 571 29,000  Level Washington Center
05:52AM 34.7947 -79.3628 24° Northeast 517 595 29,000  Level Washington Center
05:53AM 34.9347 -79.2908 23° Northeast 528 608 29,000  Level Washington Center
05:54AM 35.0789 -79.2136 24° Northeast 540 621 29,000  Level Washington Center
05:55AM 35.2167 -79.1411 23° Northeast 540 621 29,000  Level Washington Center
05:56AM 35.3522 -79.0708 23° Northeast 540 621 29,000  Level Washington Center
05:57AM 35.4900 -78.9950 24° Northeast 540 621 29,000  Level Washington Center
05:58AM 35.6278 -78.9217 23° Northeast 534 615 29,000  Level Washington Center
05:59AM 35.7614 -78.8481 24° Northeast 527 606 29,000  Level Washington Center
06:00AM 35.9011 -78.7717 24° Northeast 527 606 29,000  Level Washington Center
06:01AM 36.0344 -78.6947 25° Northeast 527 606 29,000  Level Washington Center
06:02AM 36.1722 -78.6178 24° Northeast 527 606 29,000  Level Washington Center
06:03AM 36.3097 -78.5408 24° Northeast 527 606 29,000  Level Washington Center
06:04AM 36.4450 -78.4606 26° Northeast 527 606 29,000 -180 Level Washington Center
06:05AM 36.5806 -78.3856 24° Northeast 527 606 28,700 -960 Descending Washington Center
06:06AM 36.7094 -78.3097 25° Northeast 520 598 27,200 -1,500 Descending Washington Center
06:07AM 36.8342 -78.2364 25° Northeast 502 578 25,700 -1,500 Descending Washington Center
06:08AM 36.9503 -78.1700 25° Northeast 495 570 24,200 -1,560 Descending Washington Center
06:09AM 37.0833 -78.0911 25° Northeast 488 562 22,600 -1,140 Descending Washington Center
06:10AM 37.2017 -78.0247 24° Northeast 474 545 22,000 -300 Descending Washington Center
06:11AM 37.3200 -77.9528 26° Northeast 464 534 22,000  Level Washington Center
06:12AM 37.4403 -77.8831 25° Northeast 464 534 22,000 -360 Level Washington Center
06:13AM 37.5583 -77.8108 26° Northeast 469 540 21,300 -1,200 Descending Washington Center
06:14AM 37.6764 -77.7408 25° Northeast 469 540 19,700 -1,560 Descending Washington Center
06:15AM 37.7922 -77.6758 24° Northeast 464 534 18,200 -1,560 Descending Washington Center
06:16AM 37.9039 -77.6103 25° Northeast 453 521 16,600 -1,860 Descending Washington Center
06:17AM 38.0092 -77.5472 25° Northeast 431 496 14,500 -2,400 Descending Washington Center
06:18AM 38.1019 -77.4969 23° Northeast 416 479 11,800 -2,280 Descending Washington Center
06:19AM 38.1925 -77.4411 26° Northeast 382 440 10,000 -1,260 Descending Washington Center
06:20AM 38.2697 -77.4350 North 304 350 9,300 -1,320 Descending Washington Center
06:21AM 38.3464 -77.4661 342° North 277 319 7,400 -1,200 Descending Washington Center
06:22AM 38.4192 -77.4733 356° North 277 319 7,000 -360 Descending Washington Center
06:23AM 38.4964 -77.4725 360° North 272 313 6,800 -1,020 Descending Washington Center
06:24AM 38.5714 -77.4692 North 272 313 5,000 -1,500 Descending Washington Center
06:25AM 38.6333 -77.4667 North 249 287 4,100 -600 Descending Potomac TRACON
06:26AM 38.7000 -77.4667 360° North 258 297 4,000 -120 Descending Potomac TRACON
06:27AM 38.7667 -77.4667 360° North 239 275 3,900 -660 Descending Potomac TRACON
06:28AM 38.8167 -77.4667 360° North 196 226 2,700 -1,200 Descending Potomac TRACON